Main page
METAR-TAF:

METAR-TAF

Airports :

Tarawa, Kiribati

Bonriki International Airport

latitude: 01-21N, longitude: 172-55E, elevation: 2 m

Current weather observation

The report was made 21 minutes ago, at 00:00 UTC
Wind 6 kt from the East
Temperature 30°C
Humidity 75%
Pressure 1009 hPa
Visibility 10 km or more
Few clouds at a height of 2000 ft

METAR: NGTA 200000Z 08006KT 9999 FEW020 30/25 Q1009

Time: 14:21 (00:21 UTC)

Forecast

The report was made 1 hour and 16 minutes ago, at 23:05 UTC
Forecast valid from 20 at 00 UTC to 20 at 24 UTC
Wind 10 kt from the East
Visibility 10 km or more
Scattered clouds at a height of 1800 ft

TAF: NGTA 192305Z 2000/2024 09010KT 9999 SCT018

Weather observations and forecasts of more than 4000 airports (METAR and TAF reports).

The available stations are represented by yellow and red dots on the map.

Hover mouse over dot to see the name of the station.

Then click to see weather observations and forecasts.

To change the map : click on the green buttons with a black cross to zoom in, on the green button with a dash to zoom out, or on the green arrows for adjacent maps.


METAR-TAF: